Time;durP1;ratioP1;P1;durP2;ratioP2;P2;SDS_P1;SDS_P2;PMS_P1;PMS_P2;Temp;Humidity;BMP_temperature;BMP_pressure;BME280_temperature;BME280_humidity;BME280_pressure;Samples;Min_cycle;Max_cycle;Signal;HPM_P1;HPM_P2
2023/08/15 00:01:21;;;;;;;3.33;2.50;;;27.90;73.90;;;;;;4993133;28;20112;-84
2023/08/15 00:03:47;;;;;;;3.38;2.47;;;27.90;73.80;;;;;;4993640;28;20064;-85
2023/08/15 00:06:13;;;;;;;4.00;2.63;;;27.90;73.70;;;;;;4993407;28;20042;-85
2023/08/15 00:08:39;;;;;;;4.65;2.92;;;27.90;73.70;;;;;;4992458;28;20116;-84
2023/08/15 00:11:05;;;;;;;3.25;2.13;;;27.90;73.80;;;;;;4993286;28;20074;-84
2023/08/15 00:13:31;;;;;;;3.10;2.40;;;27.80;73.50;;;;;;4993441;28;20034;-84
2023/08/15 00:15:57;;;;;;;3.22;2.40;;;27.90;73.60;;;;;;4993353;28;20041;-84
2023/08/15 00:18:23;;;;;;;2.92;2.63;;;27.90;73.80;;;;;;4979016;28;20110;-85
2023/08/15 00:20:49;;;;;;;3.78;2.38;;;27.80;73.70;;;;;;4974333;28;20035;-85
2023/08/15 00:23:15;;;;;;;4.38;2.90;;;27.80;73.70;;;;;;4993555;28;20121;-85
2023/08/15 00:25:42;;;;;;;4.18;2.65;;;27.80;73.60;;;;;;4994975;28;20038;-85
2023/08/15 00:28:08;;;;;;;3.95;2.53;;;27.80;73.50;;;;;;4996480;28;20418;-85
2023/08/15 00:30:34;;;;;;;6.15;2.67;;;27.80;73.50;;;;;;4997389;28;20035;-83
2023/08/15 00:33:00;;;;;;;4.78;2.67;;;27.70;73.60;;;;;;4995624;28;20039;-84
2023/08/15 00:35:25;;;;;;;2.55;2.30;;;27.70;73.00;;;;;;4996738;28;20035;-84
2023/08/15 00:37:51;;;;;;;4.18;2.42;;;27.70;72.50;;;;;;4987022;28;20374;-84
2023/08/15 00:40:17;;;;;;;3.30;2.50;;;27.60;72.20;;;;;;4987465;28;20428;-85
2023/08/15 00:42:42;;;;;;;4.57;2.75;;;27.60;72.50;;;;;;4996598;28;20576;-84
2023/08/15 00:45:08;;;;;;;4.80;2.70;;;27.50;72.60;;;;;;4996207;28;20039;-84
2023/08/15 00:47:34;;;;;;;5.45;2.95;;;27.50;72.70;;;;;;4989198;28;20038;-84
2023/08/15 00:50:02;;;;;;;3.92;2.70;;;27.50;72.90;;;;;;4984907;28;20030;-85
2023/08/15 00:52:28;;;;;;;5.18;3.05;;;27.50;73.20;;;;;;4996644;28;20121;-85
2023/08/15 00:54:54;;;;;;;3.80;3.10;;;27.50;73.30;;;;;;4996951;28;20113;-85
2023/08/15 00:57:21;;;;;;;3.90;3.05;;;27.40;73.30;;;;;;4991130;28;20056;-85
2023/08/15 00:59:47;;;;;;;4.85;3.45;;;27.40;73.40;;;;;;4983227;28;20030;-85
2023/08/15 01:02:13;;;;;;;5.07;3.13;;;27.40;73.30;;;;;;4996716;28;20481;-85
2023/08/15 01:04:40;;;;;;;3.25;2.65;;;27.40;73.40;;;;;;4996345;28;20101;-85
2023/08/15 01:07:06;;;;;;;5.38;3.20;;;27.40;73.50;;;;;;4996059;28;20055;-85
2023/08/15 01:09:32;;;;;;;4.35;3.58;;;27.40;73.60;;;;;;4989895;28;20956;-86
2023/08/15 01:12:00;;;;;;;4.35;3.92;;;27.40;73.90;;;;;;4996325;28;20038;-86
2023/08/15 01:14:33;;;;;;;5.53;3.78;;;27.30;74.10;;;;;;4993511;28;20034;-87
2023/08/15 01:17:00;;;;;;;4.20;3.60;;;27.30;74.30;;;;;;4994921;28;20046;-86
2023/08/15 01:19:42;;;;;;;8.32;3.90;;;27.30;74.70;;;;;;4987552;28;20046;-87
2023/08/15 01:22:15;;;;;;;5.25;4.00;;;27.20;74.90;;;;;;4995753;28;20494;-86
2023/08/15 01:24:43;;;;;;;6.15;3.70;;;27.20;75.20;;;;;;4976315;28;20038;-86
2023/08/15 01:27:08;;;;;;;6.10;3.78;;;27.10;75.30;;;;;;4994122;28;20448;-86
2023/08/15 01:29:34;;;;;;;4.55;4.10;;;27.10;75.60;;;;;;4978946;28;20042;-86
2023/08/15 01:32:30;;;;;;;4.32;3.90;;;27.10;75.60;;;;;;4977811;28;20477;-86
2023/08/15 01:35:28;;;;;;;4.65;3.70;;;27.10;75.80;;;;;;4995915;28;20050;-86
2023/08/15 01:38:02;;;;;;;5.15;3.75;;;27.10;76.20;;;;;;4994657;28;20133;-86
2023/08/15 01:40:32;;;;;;;7.97;4.43;;;27.10;76.30;;;;;;4995412;28;20074;-86
2023/08/15 01:43:00;;;;;;;7.05;4.43;;;27.10;76.20;;;;;;4995316;28;20101;-85
2023/08/15 01:45:28;;;;;;;4.88;4.10;;;27.00;76.20;;;;;;4996039;28;20039;-85
2023/08/15 01:47:53;;;;;;;5.05;4.40;;;27.00;76.50;;;;;;4991488;28;20035;-84
2023/08/15 01:50:19;;;;;;;5.00;4.35;;;27.00;76.60;;;;;;4995484;28;20496;-85
2023/08/15 01:52:45;;;;;;;4.28;3.70;;;27.00;76.60;;;;;;4987498;28;20045;-83
2023/08/15 01:55:11;;;;;;;6.05;4.10;;;27.00;76.80;;;;;;4995182;28;20038;-83
2023/08/15 01:57:36;;;;;;;5.18;3.92;;;26.90;76.90;;;;;;4994864;28;20038;-83
2023/08/15 02:00:03;;;;;;;6.10;4.32;;;26.90;77.00;;;;;;4978200;28;20082;-83
2023/08/15 02:02:29;;;;;;;5.70;4.45;;;26.80;77.10;;;;;;4994730;28;20124;-83
2023/08/15 02:04:55;;;;;;;4.32;3.83;;;26.80;77.20;;;;;;4995717;28;20074;-83
2023/08/15 02:07:21;;;;;;;5.03;3.83;;;26.80;77.40;;;;;;4995354;28;20054;-83
2023/08/15 02:09:47;;;;;;;5.78;4.10;;;26.80;77.30;;;;;;4994779;28;20581;-84
2023/08/15 02:12:15;;;;;;;5.32;4.20;;;26.80;77.40;;;;;;4994348;28;20393;-83
2023/08/15 02:14:41;;;;;;;4.97;4.00;;;26.80;77.50;;;;;;4995014;28;20042;-83
2023/08/15 02:17:06;;;;;;;6.30;3.75;;;26.70;77.60;;;;;;4983727;28;20046;-85
2023/08/15 02:19:32;;;;;;;4.95;4.45;;;26.70;77.70;;;;;;4994601;28;20400;-83
2023/08/15 02:21:58;;;;;;;6.25;4.10;;;26.70;78.00;;;;;;4994726;28;20050;-83
2023/08/15 02:24:24;;;;;;;5.40;4.53;;;26.60;78.20;;;;;;4995079;28;20053;-83
2023/08/15 02:26:49;;;;;;;4.88;4.28;;;26.60;78.40;;;;;;4993891;28;20049;-83
2023/08/15 02:29:15;;;;;;;5.82;4.55;;;26.60;78.80;;;;;;4994351;28;20037;-83
2023/08/15 02:31:46;;;;;;;4.97;3.90;;;26.60;79.20;;;;;;4994978;28;20043;-83
2023/08/15 02:34:11;;;;;;;8.32;4.18;;;26.60;79.40;;;;;;4994866;28;20039;-83
2023/08/15 02:36:37;;;;;;;5.45;4.30;;;26.50;79.60;;;;;;4994366;28;20053;-83
2023/08/15 02:39:03;;;;;;;5.45;4.28;;;26.50;79.90;;;;;;4994801;28;20066;-83
2023/08/15 02:41:29;;;;;;;5.63;4.18;;;26.50;79.90;;;;;;4994966;28;20049;-87
2023/08/15 02:43:55;;;;;;;4.90;3.80;;;26.50;80.10;;;;;;4976548;28;20392;-87
2023/08/15 02:46:20;;;;;;;5.72;4.28;;;26.50;80.30;;;;;;4981635;28;20065;-88
2023/08/15 02:48:46;;;;;;;4.68;3.97;;;26.50;80.30;;;;;;4989420;28;20117;-89
2023/08/15 02:51:12;;;;;;;4.57;3.70;;;26.50;80.30;;;;;;4994647;28;20118;-89
2023/08/15 02:53:37;;;;;;;5.30;3.90;;;26.50;80.30;;;;;;4994773;28;20034;-90
2023/08/15 02:56:03;;;;;;;4.60;3.38;;;26.50;80.40;;;;;;4994892;28;20428;-89
2023/08/15 02:58:29;;;;;;;7.05;4.05;;;26.50;80.40;;;;;;4994406;28;20047;-87
2023/08/15 03:00:54;;;;;;;5.47;4.00;;;26.50;80.30;;;;;;4918418;23;20468;-83
2023/08/15 03:03:20;;;;;;;5.65;3.65;;;26.50;80.30;;;;;;4975134;28;20065;-84
2023/08/15 03:05:46;;;;;;;4.40;3.70;;;26.50;80.20;;;;;;4976334;28;20035;-84
2023/08/15 03:08:11;;;;;;;3.70;3.35;;;26.50;80.00;;;;;;4992035;28;20121;-84
2023/08/15 03:10:39;;;;;;;5.47;3.88;;;26.50;80.00;;;;;;4982050;28;20432;-84
2023/08/15 03:13:05;;;;;;;4.38;3.60;;;26.50;79.90;;;;;;4957695;28;20038;-84
2023/08/15 03:15:31;;;;;;;3.60;3.30;;;26.50;79.80;;;;;;4976240;28;20031;-83
2023/08/15 03:17:57;;;;;;;4.43;3.50;;;26.50;79.70;;;;;;4994258;28;20030;-83
2023/08/15 03:20:23;;;;;;;3.10;2.83;;;26.50;79.40;;;;;;4975887;28;20421;-83
2023/08/15 03:22:49;;;;;;;4.03;3.17;;;26.50;79.10;;;;;;4994158;28;20114;-83
2023/08/15 03:25:15;;;;;;;4.80;3.50;;;26.50;79.20;;;;;;4994002;28;20145;-82
2023/08/15 03:27:40;;;;;;;6.20;3.20;;;26.50;79.10;;;;;;4992949;28;20062;-83
2023/08/15 03:30:06;;;;;;;4.50;3.10;;;26.50;78.90;;;;;;4975854;28;20096;-83
2023/08/15 03:32:32;;;;;;;5.82;3.60;;;26.50;78.50;;;;;;4979479;28;20041;-82
2023/08/15 03:34:58;;;;;;;5.93;3.47;;;26.50;78.50;;;;;;4974730;28;20035;-81
2023/08/15 03:37:23;;;;;;;4.88;3.20;;;26.50;78.30;;;;;;4987485;28;20483;-83
2023/08/15 03:39:49;;;;;;;3.88;3.35;;;26.50;78.10;;;;;;4991582;28;20050;-81
2023/08/15 03:42:15;;;;;;;3.88;3.30;;;26.50;78.20;;;;;;4985467;28;20038;-81
2023/08/15 03:44:40;;;;;;;4.55;3.30;;;26.50;78.00;;;;;;4992770;28;20050;-85
2023/08/15 03:47:06;;;;;;;5.03;3.30;;;26.50;77.80;;;;;;4993180;28;20045;-82
2023/08/15 03:49:32;;;;;;;4.30;3.25;;;26.50;77.80;;;;;;4992456;28;20057;-82
2023/08/15 03:51:57;;;;;;;7.07;3.58;;;26.50;77.80;;;;;;4992391;28;20034;-81
2023/08/15 03:54:23;;;;;;;4.18;3.15;;;26.50;77.60;;;;;;4992700;28;20117;-86
2023/08/15 03:56:49;;;;;;;3.92;3.00;;;26.50;77.60;;;;;;4993924;28;20039;-89
2023/08/15 03:59:15;;;;;;;3.65;3.25;;;26.50;77.50;;;;;;4993636;28;20112;-86
2023/08/15 04:01:40;;;;;;;5.45;3.17;;;26.50;77.50;;;;;;4990097;28;20041;-81
2023/08/15 04:04:06;;;;;;;6.30;3.20;;;26.50;77.40;;;;;;4982393;28;20496;-81
2023/08/15 04:06:32;;;;;;;4.55;3.42;;;26.50;77.50;;;;;;4996066;28;20433;-80
2023/08/15 04:08:58;;;;;;;4.00;3.22;;;26.50;77.60;;;;;;4997301;28;20097;-80
2023/08/15 04:11:23;;;;;;;3.92;3.30;;;26.50;77.70;;;;;;4996727;28;20106;-79
2023/08/15 04:13:49;;;;;;;3.72;3.33;;;26.50;77.50;;;;;;4995092;28;20038;-81
2023/08/15 04:16:15;;;;;;;4.20;3.33;;;26.40;77.60;;;;;;4996733;28;20035;-80
2023/08/15 04:18:41;;;;;;;4.03;3.30;;;26.50;77.70;;;;;;4996835;28;20395;-81
2023/08/15 04:21:06;;;;;;;4.15;3.80;;;26.50;77.50;;;;;;4996814;28;20106;-81
2023/08/15 04:23:32;;;;;;;4.60;3.50;;;26.50;77.20;;;;;;4988824;28;20050;-81
2023/08/15 04:25:58;;;;;;;4.32;3.60;;;26.50;77.10;;;;;;4979025;28;20417;-80
2023/08/15 04:28:23;;;;;;;3.83;3.10;;;26.50;77.10;;;;;;4996758;28;20046;-80
2023/08/15 04:30:49;;;;;;;5.90;3.13;;;26.50;76.90;;;;;;4997234;28;20039;-80
2023/08/15 04:33:15;;;;;;;6.38;3.35;;;26.50;76.80;;;;;;4978188;28;20412;-80
2023/08/15 04:35:40;;;;;;;3.42;3.13;;;26.50;76.90;;;;;;4990705;28;20057;-80
2023/08/15 04:38:06;;;;;;;4.75;3.33;;;26.60;77.00;;;;;;4996755;28;20047;-80
2023/08/15 04:40:34;;;;;;;3.80;3.40;;;26.60;77.10;;;;;;4996531;28;20023;-82
2023/08/15 04:43:01;;;;;;;3.47;3.17;;;26.60;76.80;;;;;;4962839;28;20043;-80
2023/08/15 04:45:27;;;;;;;4.28;3.13;;;26.50;76.60;;;;;;4988723;28;20045;-81
2023/08/15 04:47:53;;;;;;;4.50;3.20;;;26.60;76.60;;;;;;4996858;28;20042;-81
2023/08/15 04:50:18;;;;;;;3.10;2.90;;;26.60;76.50;;;;;;4985666;28;20027;-80
2023/08/15 04:52:44;;;;;;;3.35;2.90;;;26.60;76.20;;;;;;4989310;28;20043;-81
2023/08/15 04:55:10;;;;;;;4.47;2.97;;;26.60;76.00;;;;;;4995166;28;20030;-80
2023/08/15 04:57:37;;;;;;;3.70;3.08;;;26.60;76.30;;;;;;4992958;28;20492;-82
2023/08/15 05:00:08;;;;;;;3.60;3.30;;;26.60;76.00;;;;;;4986487;28;20435;-81
2023/08/15 05:02:35;;;;;;;6.57;3.55;;;26.60;76.20;;;;;;4996096;28;20045;-80
2023/08/15 05:05:03;;;;;;;5.72;3.28;;;26.60;76.70;;;;;;4988606;28;20034;-80
2023/08/15 05:07:28;;;;;;;4.25;3.30;;;26.70;77.00;;;;;;4995824;28;20042;-80
2023/08/15 05:09:54;;;;;;;5.35;3.70;;;26.70;76.90;;;;;;4993898;28;20096;-80
2023/08/15 05:12:20;;;;;;;4.38;3.40;;;26.70;76.80;;;;;;4990382;28;20070;-81
2023/08/15 05:14:45;;;;;;;6.03;3.05;;;26.60;77.10;;;;;;4993699;28;20170;-81
2023/08/15 05:17:11;;;;;;;4.13;3.40;;;26.60;77.00;;;;;;4959510;28;20042;-80
2023/08/15 05:19:38;;;;;;;7.30;3.42;;;26.60;77.10;;;;;;4965089;28;20046;-82
2023/08/15 05:22:03;;;;;;;4.45;3.00;;;26.70;77.20;;;;;;4995991;28;20105;-80
2023/08/15 05:24:29;;;;;;;3.95;3.40;;;26.70;77.10;;;;;;4994838;28;20153;-80
2023/08/15 05:26:55;;;;;;;6.53;3.70;;;26.70;77.10;;;;;;4995314;28;20047;-80
2023/08/15 05:29:20;;;;;;;5.95;3.63;;;26.80;77.20;;;;;;4994843;28;20455;-80
2023/08/15 05:31:46;;;;;;;4.60;3.58;;;26.70;77.10;;;;;;4994228;28;20527;-81
2023/08/15 05:34:12;;;;;;;5.05;3.63;;;26.70;76.80;;;;;;4982600;28;20485;-80
2023/08/15 05:36:37;;;;;;;6.80;3.55;;;26.80;77.00;;;;;;4995218;28;20488;-81
2023/08/15 05:39:04;;;;;;;5.78;3.70;;;26.70;77.00;;;;;;4996451;28;20042;-80
2023/08/15 05:41:31;;;;;;;7.68;4.05;;;26.70;76.90;;;;;;4972245;28;20061;-80
2023/08/15 05:43:56;;;;;;;7.20;4.18;;;26.70;76.80;;;;;;4996100;28;20050;-81
2023/08/15 05:46:22;;;;;;;4.32;3.47;;;26.70;76.80;;;;;;4992983;28;20523;-81
2023/08/15 05:48:47;;;;;;;4.90;3.63;;;26.70;76.70;;;;;;4982857;28;20050;-80
2023/08/15 05:51:13;;;;;;;4.25;3.55;;;26.80;77.00;;;;;;4977006;28;20049;-81
2023/08/15 05:53:40;;;;;;;5.63;3.75;;;26.80;76.90;;;;;;4995791;28;20117;-81
2023/08/15 05:56:05;;;;;;;5.35;3.80;;;26.80;77.10;;;;;;4986821;28;20397;-82
2023/08/15 05:58:31;;;;;;;3.92;3.58;;;26.80;76.70;;;;;;4991542;28;20038;-79
2023/08/15 06:00:57;;;;;;;3.70;3.10;;;26.90;76.80;;;;;;4987375;28;20050;-81
2023/08/15 06:03:22;;;;;;;4.40;3.28;;;26.90;76.60;;;;;;4994323;28;20054;-83
2023/08/15 06:05:48;;;;;;;4.03;3.08;;;26.90;76.60;;;;;;4982790;28;20030;-81
2023/08/15 06:08:14;;;;;;;6.93;3.13;;;26.90;76.30;;;;;;4980537;28;20046;-81
2023/08/15 06:10:39;;;;;;;3.45;3.15;;;26.90;76.50;;;;;;5000193;28;20037;-81
2023/08/15 06:13:05;;;;;;;3.20;2.78;;;26.90;76.10;;;;;;5001375;28;20111;-78
2023/08/15 06:15:31;;;;;;;4.97;2.88;;;27.00;76.00;;;;;;5001020;28;20035;-77
2023/08/15 06:17:57;;;;;;;3.80;3.17;;;27.00;75.40;;;;;;4983957;28;20074;-78
2023/08/15 06:20:23;;;;;;;3.60;2.83;;;27.00;75.60;;;;;;4992789;28;20507;-77
2023/08/15 06:22:48;;;;;;;2.75;2.45;;;27.10;75.20;;;;;;4978956;28;20038;-77
2023/08/15 06:25:14;;;;;;;3.38;3.05;;;27.10;75.40;;;;;;4988492;28;20042;-84
2023/08/15 06:27:40;;;;;;;6.85;3.10;;;27.10;75.30;;;;;;4990014;28;20039;-81
2023/08/15 06:30:06;;;;;;;4.07;3.00;;;27.20;75.20;;;;;;4990033;28;20573;-80
2023/08/15 06:32:34;;;;;;;3.03;2.75;;;27.20;75.10;;;;;;4984344;28;20109;-80
2023/08/15 06:35:06;;;;;;;4.93;2.78;;;27.30;75.00;;;;;;4987094;28;20060;-83
2023/08/15 06:37:32;;;;;;;4.07;2.80;;;27.30;75.10;;;;;;4973488;28;20611;-82
2023/08/15 06:39:57;;;;;;;5.80;3.17;;;27.30;74.80;;;;;;4993423;28;20046;-82
2023/08/15 06:42:23;;;;;;;4.93;2.65;;;27.30;74.60;;;;;;4994482;28;20583;-82
2023/08/15 06:44:49;;;;;;;3.88;3.00;;;27.30;74.50;;;;;;4993596;28;20035;-82
2023/08/15 06:47:14;;;;;;;4.97;2.67;;;27.40;74.70;;;;;;4994359;28;20479;-82
2023/08/15 06:49:40;;;;;;;3.20;2.90;;;27.40;74.80;;;;;;4994765;28;20034;-82
2023/08/15 06:52:09;;;;;;;3.00;2.70;;;27.50;74.80;;;;;;4995023;28;20088;-82
2023/08/15 06:54:36;;;;;;;3.42;2.78;;;27.50;74.80;;;;;;4994386;28;20034;-82
2023/08/15 06:57:02;;;;;;;3.60;2.97;;;27.60;74.70;;;;;;4994444;28;20070;-82
2023/08/15 06:59:28;;;;;;;3.42;3.13;;;27.60;74.20;;;;;;4982780;28;20031;-82
2023/08/15 07:01:54;;;;;;;3.13;2.80;;;27.60;74.20;;;;;;4974924;28;20523;-82
2023/08/15 07:04:20;;;;;;;3.60;3.00;;;27.70;74.00;;;;;;4981334;28;20050;-82
2023/08/15 07:06:46;;;;;;;3.15;2.85;;;27.70;73.80;;;;;;4994522;28;20046;-82
2023/08/15 07:09:12;;;;;;;5.07;3.17;;;27.80;74.10;;;;;;4994211;28;20460;-82
2023/08/15 07:11:37;;;;;;;3.40;3.10;;;27.80;73.90;;;;;;4994121;28;20034;-82
2023/08/15 07:14:03;;;;;;;3.55;2.80;;;27.90;74.00;;;;;;4993329;28;20019;-82
2023/08/15 07:16:29;;;;;;;3.00;2.60;;;28.00;73.80;;;;;;4992970;28;21009;-82
2023/08/15 07:18:55;;;;;;;4.60;2.95;;;28.00;73.60;;;;;;4974690;28;20046;-82
2023/08/15 07:21:20;;;;;;;2.97;2.60;;;28.00;74.10;;;;;;4975088;28;20042;-82
2023/08/15 07:23:46;;;;;;;4.03;3.05;;;28.10;73.70;;;;;;4982088;28;20483;-82
2023/08/15 07:26:13;;;;;;;4.07;2.70;;;28.10;73.60;;;;;;4984562;28;20034;-82
2023/08/15 07:28:39;;;;;;;4.65;3.20;;;28.20;73.10;;;;;;4993906;28;20026;-82
2023/08/15 07:31:05;;;;;;;4.95;3.22;;;28.30;73.00;;;;;;4994252;28;20441;-82
2023/08/15 07:33:31;;;;;;;3.95;2.85;;;28.30;73.00;;;;;;4993945;28;20061;-82
2023/08/15 07:35:57;;;;;;;6.85;3.33;;;28.40;73.00;;;;;;4991313;28;20456;-82
2023/08/15 07:38:23;;;;;;;4.50;2.50;;;28.40;73.20;;;;;;4974892;28;20114;-82
2023/08/15 07:40:49;;;;;;;4.95;2.78;;;28.40;73.50;;;;;;4957191;28;20074;-82
2023/08/15 07:43:15;;;;;;;4.20;3.00;;;28.50;73.50;;;;;;4974904;28;20037;-82
2023/08/15 07:45:41;;;;;;;4.93;3.08;;;28.50;73.10;;;;;;4988814;28;20043;-82
2023/08/15 07:48:06;;;;;;;3.28;3.00;;;28.60;73.10;;;;;;4994112;28;20066;-82
2023/08/15 07:50:32;;;;;;;4.45;2.90;;;28.60;73.00;;;;;;4994138;28;20073;-82
2023/08/15 07:52:58;;;;;;;2.60;2.40;;;28.70;72.80;;;;;;4991085;28;20579;-83
2023/08/15 07:55:24;;;;;;;3.55;2.65;;;28.70;72.70;;;;;;4984989;28;20069;-82
2023/08/15 07:57:50;;;;;;;3.28;2.97;;;28.80;72.00;;;;;;4976556;28;20381;-82
2023/08/15 08:00:16;;;;;;;3.53;3.03;;;28.80;71.70;;;;;;4994139;28;20042;-82
2023/08/15 08:02:44;;;;;;;3.00;2.70;;;28.90;71.80;;;;;;4976393;28;20034;-82
2023/08/15 08:05:11;;;;;;;5.25;2.75;;;28.90;71.50;;;;;;4992695;28;20038;-82
2023/08/15 08:07:39;;;;;;;3.55;3.00;;;29.00;71.40;;;;;;4993690;28;20034;-83
2023/08/15 08:10:06;;;;;;;5.03;2.92;;;29.00;71.10;;;;;;4994437;28;20425;-82
2023/08/15 08:12:31;;;;;;;2.65;2.40;;;29.00;70.10;;;;;;4994756;28;20030;-82
2023/08/15 08:14:57;;;;;;;3.10;2.53;;;29.10;70.40;;;;;;4996954;28;20045;-82
2023/08/15 08:17:24;;;;;;;3.00;2.58;;;29.20;70.40;;;;;;4997683;28;20050;-82
2023/08/15 08:19:50;;;;;;;3.15;2.85;;;29.20;70.10;;;;;;4982218;28;20493;-82
2023/08/15 08:22:16;;;;;;;9.30;3.17;;;29.30;69.80;;;;;;4998026;28;20061;-83
2023/08/15 08:24:41;;;;;;;3.60;2.83;;;29.40;68.40;;;;;;4981715;28;20043;-82
2023/08/15 08:27:07;;;;;;;3.35;3.00;;;29.40;68.80;;;;;;4981042;28;20417;-82
2023/08/15 08:29:33;;;;;;;3.10;2.70;;;29.50;68.20;;;;;;4980898;28;20068;-82
2023/08/15 08:31:58;;;;;;;3.38;2.72;;;29.60;69.00;;;;;;4992989;28;20173;-82
2023/08/15 08:34:24;;;;;;;3.53;2.55;;;29.60;68.60;;;;;;4997617;28;20023;-83
2023/08/15 08:36:50;;;;;;;5.00;2.45;;;29.70;68.20;;;;;;4994741;28;20496;-83
2023/08/15 08:39:15;;;;;;;3.00;2.70;;;29.70;67.50;;;;;;4993741;28;20423;-83
2023/08/15 08:41:41;;;;;;;3.17;2.88;;;29.80;67.60;;;;;;4974581;28;20070;-82
2023/08/15 08:44:09;;;;;;;5.43;2.80;;;29.90;68.20;;;;;;4985306;28;20122;-83
2023/08/15 08:46:36;;;;;;;3.25;2.60;;;30.00;68.10;;;;;;4995223;28;20042;-83
2023/08/15 08:49:04;;;;;;;9.98;2.40;;;30.10;68.10;;;;;;4996867;28;20224;-82
2023/08/15 08:51:32;;;;;;;2.88;2.60;;;30.20;67.10;;;;;;4995492;28;20070;-83
2023/08/15 08:53:58;;;;;;;3.78;2.80;;;30.20;66.90;;;;;;4995827;28;20037;-82
2023/08/15 08:56:25;;;;;;;2.80;2.60;;;30.30;66.30;;;;;;4996555;28;20038;-83
2023/08/15 08:59:11;;;;;;;3.20;2.90;;;30.40;65.60;;;;;;4996549;28;20026;-82
2023/08/15 09:01:39;;;;;;;3.88;2.70;;;30.40;63.10;;;;;;4996018;28;20050;-83
2023/08/15 09:04:06;;;;;;;4.72;2.55;;;30.50;65.20;;;;;;4996778;28;20038;-83
2023/08/15 09:06:32;;;;;;;2.95;2.65;;;30.60;65.70;;;;;;4996687;28;20045;-83
2023/08/15 09:08:59;;;;;;;3.20;2.50;;;30.70;65.00;;;;;;4996762;28;20377;-82
2023/08/15 09:11:34;;;;;;;2.95;2.70;;;30.70;64.90;;;;;;4978965;28;20069;-83
2023/08/15 09:14:03;;;;;;;2.97;2.78;;;30.80;65.20;;;;;;4996708;28;20030;-83
2023/08/15 09:16:32;;;;;;;4.25;3.13;;;30.90;65.10;;;;;;4997049;28;20030;-83
2023/08/15 09:19:02;;;;;;;3.22;2.92;;;31.00;65.70;;;;;;4991681;28;20038;-83
2023/08/15 09:21:29;;;;;;;2.90;2.50;;;31.10;65.80;;;;;;4996512;28;20105;-82
2023/08/15 09:23:56;;;;;;;4.57;3.30;;;31.20;65.10;;;;;;4995660;28;20046;-82
2023/08/15 09:26:23;;;;;;;3.13;2.88;;;31.30;63.80;;;;;;4982058;28;20481;-83
2023/08/15 09:28:49;;;;;;;3.55;3.00;;;31.30;63.80;;;;;;4993654;28;20425;-83
2023/08/15 09:31:15;;;;;;;3.33;3.03;;;31.30;63.50;;;;;;4996595;28;20038;-83
2023/08/15 09:33:41;;;;;;;3.10;2.80;;;31.40;63.10;;;;;;4994607;28;20377;-82
2023/08/15 09:36:09;;;;;;;6.68;2.80;;;31.40;64.30;;;;;;4995527;28;20815;-83
2023/08/15 09:38:39;;;;;;;4.82;3.28;;;31.60;64.50;;;;;;4995513;28;20371;-83
2023/08/15 09:41:05;;;;;;;4.22;3.00;;;31.70;63.70;;;;;;4978547;28;20049;-82
2023/08/15 09:43:32;;;;;;;3.67;2.83;;;31.70;63.60;;;;;;4995413;28;20039;-83
2023/08/15 09:45:59;;;;;;;3.53;3.13;;;31.70;63.30;;;;;;4995831;28;20105;-82
2023/08/15 09:48:27;;;;;;;4.30;2.83;;;31.80;62.20;;;;;;4995722;28;20043;-82
2023/08/15 09:50:55;;;;;;;3.15;2.90;;;31.80;62.50;;;;;;4995934;28;20045;-83
2023/08/15 09:53:23;;;;;;;3.95;3.15;;;31.90;63.00;;;;;;4995101;28;20416;-82
2023/08/15 09:55:49;;;;;;;3.40;2.83;;;32.00;61.90;;;;;;4989318;28;20039;-82
2023/08/15 09:58:16;;;;;;;4.47;2.88;;;32.00;61.70;;;;;;4976106;28;20031;-83
2023/08/15 10:00:43;;;;;;;3.65;3.35;;;32.10;61.50;;;;;;4976229;28;20520;-83
2023/08/15 10:03:18;;;;;;;4.18;2.63;;;32.20;60.70;;;;;;4976336;28;20039;-82
2023/08/15 10:05:50;;;;;;;5.45;2.95;;;32.30;61.40;;;;;;4992353;28;20125;-83
2023/08/15 10:08:19;;;;;;;3.33;3.03;;;32.50;61.70;;;;;;4977838;28;20362;-83
2023/08/15 10:10:53;;;;;;;3.57;3.00;;;32.60;61.30;;;;;;4995050;28;20092;-83
2023/08/15 10:13:24;;;;;;;3.20;2.63;;;32.60;60.90;;;;;;4995544;28;20728;-82
2023/08/15 10:15:51;;;;;;;3.40;2.97;;;32.70;60.90;;;;;;4994818;28;20039;-82
2023/08/15 10:18:17;;;;;;;3.10;2.60;;;32.80;61.20;;;;;;4995285;28;20068;-83
2023/08/15 10:20:48;;;;;;;4.80;3.35;;;32.90;61.20;;;;;;4995087;28;20070;-83
2023/08/15 10:23:23;;;;;;;2.92;2.60;;;33.10;60.00;;;;;;4994165;28;20053;-83
2023/08/15 10:25:51;;;;;;;5.75;2.90;;;33.10;59.80;;;;;;4985197;28;20043;-83
2023/08/15 10:28:19;;;;;;;3.17;2.90;;;33.30;60.20;;;;;;4976035;28;20042;-83
2023/08/15 10:30:46;;;;;;;3.20;2.90;;;33.40;60.20;;;;;;4975755;28;20139;-82
2023/08/15 10:33:13;;;;;;;3.00;2.70;;;33.60;60.00;;;;;;4975494;28;20035;-82
2023/08/15 10:35:50;;;;;;;4.10;3.40;;;33.70;59.90;;;;;;4990214;28;20031;-83
2023/08/15 10:38:19;;;;;;;2.88;2.67;;;33.90;58.00;;;;;;4994018;28;20038;-83
2023/08/15 10:40:45;;;;;;;2.97;2.67;;;34.00;58.40;;;;;;4975493;28;20123;-83
2023/08/15 10:43:12;;;;;;;3.50;2.83;;;33.90;57.80;;;;;;4975764;28;20066;-83
2023/08/15 10:45:52;;;;;;;3.45;3.03;;;33.90;56.30;;;;;;4990450;28;20074;-83
2023/08/15 10:48:43;;;;;;;2.97;2.75;;;33.90;56.60;;;;;;4994797;28;20408;-82
2023/08/15 10:51:40;;;;;;;4.32;2.90;;;33.90;56.80;;;;;;4994795;28;20049;-82
2023/08/15 10:54:12;;;;;;;3.58;2.72;;;34.00;57.90;;;;;;4975653;28;20049;-82
2023/08/15 10:56:39;;;;;;;4.40;3.03;;;34.20;58.00;;;;;;4994150;28;20065;-83
2023/08/15 10:59:11;;;;;;;3.00;2.78;;;34.50;57.60;;;;;;4994092;28;20461;-83
2023/08/15 11:01:39;;;;;;;2.90;2.70;;;34.60;56.30;;;;;;4993998;28;20508;-82
2023/08/15 11:04:10;;;;;;;2.85;2.53;;;34.50;56.10;;;;;;4993843;28;20065;-82
2023/08/15 11:06:47;;;;;;;3.63;2.90;;;34.60;56.40;;;;;;4993041;28;20045;-83
2023/08/15 11:09:13;;;;;;;4.85;2.90;;;34.60;55.70;;;;;;4993356;28;20465;-82
2023/08/15 11:11:39;;;;;;;3.75;3.35;;;34.70;56.30;;;;;;4994202;28;20034;-82
2023/08/15 11:14:17;;;;;;;3.58;3.05;;;34.70;56.50;;;;;;4993215;28;20164;-82
2023/08/15 11:16:45;;;;;;;3.25;2.72;;;34.90;56.10;;;;;;4976156;28;20097;-83
2023/08/15 11:19:11;;;;;;;5.05;3.15;;;34.90;56.20;;;;;;4992257;28;20042;-82
2023/08/15 11:21:37;;;;;;;3.17;2.75;;;35.10;56.10;;;;;;4991838;28;20049;-82
2023/08/15 11:24:03;;;;;;;3.55;3.00;;;35.20;56.30;;;;;;4987240;28;20043;-82
2023/08/15 11:26:28;;;;;;;3.28;3.00;;;35.50;56.00;;;;;;4974601;28;20035;-83
2023/08/15 11:28:54;;;;;;;4.68;2.83;;;35.70;56.00;;;;;;4974668;28;20485;-82
2023/08/15 11:31:20;;;;;;;3.63;3.20;;;35.90;55.50;;;;;;4975168;28;20461;-82
2023/08/15 11:33:51;;;;;;;3.33;2.60;;;36.10;55.00;;;;;;4992228;28;20054;-82
2023/08/15 11:36:17;;;;;;;3.58;3.22;;;36.40;55.60;;;;;;4994289;28;20042;-83
2023/08/15 11:38:43;;;;;;;3.42;3.13;;;36.70;55.20;;;;;;4994155;28;20055;-82
2023/08/15 11:41:09;;;;;;;3.00;2.67;;;37.00;55.10;;;;;;4994255;28;20042;-82
2023/08/15 11:43:35;;;;;;;3.33;2.90;;;37.30;55.00;;;;;;4974729;28;20043;-83
2023/08/15 11:46:05;;;;;;;3.47;2.50;;;37.60;54.00;;;;;;4993664;28;20041;-83
2023/08/15 11:48:34;;;;;;;2.90;2.70;;;37.90;53.60;;;;;;4994023;28;20036;-83
2023/08/15 11:51:01;;;;;;;2.50;2.30;;;38.20;52.70;;;;;;4994233;28;20030;-83
2023/08/15 11:53:27;;;;;;;4.28;2.47;;;38.30;51.90;;;;;;4992082;28;20096;-83
2023/08/15 11:55:53;;;;;;;3.15;2.35;;;38.40;50.60;;;;;;4993931;28;20492;-83
2023/08/15 11:58:32;;;;;;;3.35;2.65;;;38.30;51.10;;;;;;4994126;28;20034;-82
2023/08/15 12:01:02;;;;;;;;;;;38.40;50.30;;;;;;4994345;28;20120;-83
2023/08/15 12:03:29;;;;;;;5.40;3.00;;;38.40;49.20;;;;;;4993580;28;19909;-82
2023/08/15 12:06:00;;;;;;;3.67;2.83;;;38.50;50.80;;;;;;4993742;28;20469;-82
2023/08/15 12:08:27;;;;;;;3.40;3.03;;;38.50;50.60;;;;;;4993766;28;20085;-82
2023/08/15 12:10:59;;;;;;;3.00;2.80;;;38.70;50.20;;;;;;4993851;28;20150;-83
2023/08/15 12:13:43;;;;;;;3.15;2.85;;;38.70;50.00;;;;;;4992856;28;20045;-83
2023/08/15 12:16:10;;;;;;;3.63;2.95;;;38.80;49.60;;;;;;4993446;28;20057;-83
2023/08/15 12:18:36;;;;;;;3.53;2.78;;;39.00;50.20;;;;;;4989090;28;20090;-83
2023/08/15 12:21:07;;;;;;;3.15;2.85;;;39.20;50.20;;;;;;4986060;28;20038;-83
2023/08/15 12:23:33;;;;;;;4.95;3.13;;;39.30;50.00;;;;;;4986191;28;20069;-82
2023/08/15 12:25:58;;;;;;;3.00;2.70;;;39.40;49.60;;;;;;4989526;28;20062;-82
2023/08/15 12:28:24;;;;;;;3.60;2.75;;;39.30;49.40;;;;;;4997534;28;20088;-82
2023/08/15 12:30:50;;;;;;;4.40;2.65;;;39.20;49.00;;;;;;4997779;28;20038;-82
2023/08/15 12:33:16;;;;;;;3.00;2.60;;;39.20;49.50;;;;;;4996832;28;20046;-83
2023/08/15 12:35:42;;;;;;;8.45;3.10;;;39.30;49.40;;;;;;4997455;28;20043;-83
2023/08/15 12:38:07;;;;;;;3.22;2.92;;;39.40;49.80;;;;;;4997425;28;20066;-82
2023/08/15 12:40:33;;;;;;;5.07;2.83;;;39.50;49.80;;;;;;4997247;28;20487;-83
2023/08/15 12:42:59;;;;;;;4.90;2.70;;;39.60;49.50;;;;;;4997306;28;20034;-83
2023/08/15 12:45:25;;;;;;;4.35;2.95;;;39.80;49.40;;;;;;4994015;28;20062;-83
2023/08/15 12:47:51;;;;;;;4.65;3.05;;;39.80;50.00;;;;;;4995766;28;20034;-82